sensor_id;sensor_type;location;lat;lon;timestamp;temperature;humidity
74178;DHT22;62540;48.456;-4.456;2023-08-06T00:00:22;16.73;78.30
74178;DHT22;62540;48.456;-4.456;2023-08-06T00:02:48;16.75;78.18
74178;DHT22;62540;48.456;-4.456;2023-08-06T00:05:14;16.76;78.35
74178;DHT22;62540;48.456;-4.456;2023-08-06T00:07:44;16.69;78.40
74178;DHT22;62540;48.456;-4.456;2023-08-06T00:10:09;16.72;78.24
74178;DHT22;62540;48.456;-4.456;2023-08-06T00:12:34;16.70;78.64
74178;DHT22;62540;48.456;-4.456;2023-08-06T00:15:00;16.68;78.88
74178;DHT22;62540;48.456;-4.456;2023-08-06T00:17:25;16.66;78.93
74178;DHT22;62540;48.456;-4.456;2023-08-06T00:19:50;16.61;78.93
74178;DHT22;62540;48.456;-4.456;2023-08-06T00:22:16;16.65;78.88
74178;DHT22;62540;48.456;-4.456;2023-08-06T00:24:41;16.63;79.11
74178;DHT22;62540;48.456;-4.456;2023-08-06T00:27:07;16.61;79.11
74178;DHT22;62540;48.456;-4.456;2023-08-06T00:29:32;16.63;78.79
74178;DHT22;62540;48.456;-4.456;2023-08-06T00:31:57;16.65;78.85
74178;DHT22;62540;48.456;-4.456;2023-08-06T00:34:23;16.68;78.75
74178;DHT22;62540;48.456;-4.456;2023-08-06T00:36:48;16.68;78.92
74178;DHT22;62540;48.456;-4.456;2023-08-06T00:39:13;16.65;78.74
74178;DHT22;62540;48.456;-4.456;2023-08-06T00:41:39;16.68;78.90
74178;DHT22;62540;48.456;-4.456;2023-08-06T00:44:04;16.70;78.96
74178;DHT22;62540;48.456;-4.456;2023-08-06T00:46:30;16.68;78.88
74178;DHT22;62540;48.456;-4.456;2023-08-06T00:48:56;16.63;79.07
74178;DHT22;62540;48.456;-4.456;2023-08-06T00:51:22;16.69;78.81
74178;DHT22;62540;48.456;-4.456;2023-08-06T00:53:49;16.62;79.18
74178;DHT22;62540;48.456;-4.456;2023-08-06T00:56:15;16.66;78.86
74178;DHT22;62540;48.456;-4.456;2023-08-06T00:58:41;16.66;78.73
74178;DHT22;62540;48.456;-4.456;2023-08-06T01:01:07;16.70;78.58
74178;DHT22;62540;48.456;-4.456;2023-08-06T01:03:32;16.68;78.64
74178;DHT22;62540;48.456;-4.456;2023-08-06T01:05:57;16.66;78.58
74178;DHT22;62540;48.456;-4.456;2023-08-06T01:08:48;16.68;78.49
74178;DHT22;62540;48.456;-4.456;2023-08-06T01:11:44;16.62;78.90
74178;DHT22;62540;48.456;-4.456;2023-08-06T01:16:48;16.58;78.81
74178;DHT22;62540;48.456;-4.456;2023-08-06T01:19:17;16.62;78.76
74178;DHT22;62540;48.456;-4.456;2023-08-06T01:21:43;16.62;79.05
74178;DHT22;62540;48.456;-4.456;2023-08-06T01:24:08;16.58;78.82
74178;DHT22;62540;48.456;-4.456;2023-08-06T01:26:40;16.59;78.76
74178;DHT22;62540;48.456;-4.456;2023-08-06T01:29:25;16.55;78.94
74178;DHT22;62540;48.456;-4.456;2023-08-06T01:31:55;16.58;78.63
74178;DHT22;62540;48.456;-4.456;2023-08-06T01:34:23;16.53;79.01
74178;DHT22;62540;48.456;-4.456;2023-08-06T01:36:50;16.56;78.66
74178;DHT22;62540;48.456;-4.456;2023-08-06T01:39:16;16.59;78.59
74178;DHT22;62540;48.456;-4.456;2023-08-06T01:41:41;16.58;78.66
74178;DHT22;62540;48.456;-4.456;2023-08-06T01:44:07;16.58;78.62
74178;DHT22;62540;48.456;-4.456;2023-08-06T01:46:32;16.58;78.71
74178;DHT22;62540;48.456;-4.456;2023-08-06T01:48:57;16.55;79.02
74178;DHT22;62540;48.456;-4.456;2023-08-06T01:51:23;16.52;79.06
74178;DHT22;62540;48.456;-4.456;2023-08-06T01:53:48;16.49;78.97
74178;DHT22;62540;48.456;-4.456;2023-08-06T01:56:13;16.49;78.84
74178;DHT22;62540;48.456;-4.456;2023-08-06T01:58:39;16.52;78.68
74178;DHT22;62540;48.456;-4.456;2023-08-06T02:01:04;16.52;78.74
74178;DHT22;62540;48.456;-4.456;2023-08-06T02:03:30;16.51;78.59
74178;DHT22;62540;48.456;-4.456;2023-08-06T02:05:55;16.49;78.60
74178;DHT22;62540;48.456;-4.456;2023-08-06T02:08:21;16.53;78.57
74178;DHT22;62540;48.456;-4.456;2023-08-06T02:10:46;16.51;78.65
74178;DHT22;62540;48.456;-4.456;2023-08-06T02:13:11;16.49;78.34
74178;DHT22;62540;48.456;-4.456;2023-08-06T02:15:44;16.53;78.33
74178;DHT22;62540;48.456;-4.456;2023-08-06T02:18:10;16.53;78.27
74178;DHT22;62540;48.456;-4.456;2023-08-06T02:20:35;16.51;78.34
74178;DHT22;62540;48.456;-4.456;2023-08-06T02:23:01;16.45;78.52
74178;DHT22;62540;48.456;-4.456;2023-08-06T02:25:26;16.45;78.42
74178;DHT22;62540;48.456;-4.456;2023-08-06T02:27:52;16.38;78.74
74178;DHT22;62540;48.456;-4.456;2023-08-06T02:30:17;16.42;78.45
74178;DHT22;62540;48.456;-4.456;2023-08-06T02:32:42;16.38;78.47
74178;DHT22;62540;48.456;-4.456;2023-08-06T02:35:08;16.33;78.61
74178;DHT22;62540;48.456;-4.456;2023-08-06T02:37:34;16.36;78.53
74178;DHT22;62540;48.456;-4.456;2023-08-06T02:39:59;16.35;78.52
74178;DHT22;62540;48.456;-4.456;2023-08-06T02:42:25;16.38;78.46
74178;DHT22;62540;48.456;-4.456;2023-08-06T02:44:52;16.31;78.47
74178;DHT22;62540;48.456;-4.456;2023-08-06T02:47:17;16.36;78.38
74178;DHT22;62540;48.456;-4.456;2023-08-06T02:49:43;16.40;78.28
74178;DHT22;62540;48.456;-4.456;2023-08-06T02:52:08;16.38;78.23
74178;DHT22;62540;48.456;-4.456;2023-08-06T02:54:34;16.41;78.07
74178;DHT22;62540;48.456;-4.456;2023-08-06T02:56:59;16.41;77.97
74178;DHT22;62540;48.456;-4.456;2023-08-06T02:59:25;16.40;78.12
74178;DHT22;62540;48.456;-4.456;2023-08-06T03:01:50;16.40;78.00
74178;DHT22;62540;48.456;-4.456;2023-08-06T03:04:15;16.41;77.94
74178;DHT22;62540;48.456;-4.456;2023-08-06T03:06:43;16.42;77.88
74178;DHT22;62540;48.456;-4.456;2023-08-06T03:09:08;16.40;78.00
74178;DHT22;62540;48.456;-4.456;2023-08-06T03:11:33;16.40;78.02
74178;DHT22;62540;48.456;-4.456;2023-08-06T03:13:59;16.41;78.03
74178;DHT22;62540;48.456;-4.456;2023-08-06T03:16:24;16.40;78.08
74178;DHT22;62540;48.456;-4.456;2023-08-06T03:18:50;16.42;78.25
74178;DHT22;62540;48.456;-4.456;2023-08-06T03:21:15;16.35;78.49
74178;DHT22;62540;48.456;-4.456;2023-08-06T03:23:40;16.35;78.51
74178;DHT22;62540;48.456;-4.456;2023-08-06T03:26:06;16.38;78.57
74178;DHT22;62540;48.456;-4.456;2023-08-06T03:28:31;16.38;78.71
74178;DHT22;62540;48.456;-4.456;2023-08-06T03:31:01;16.40;78.80
74178;DHT22;62540;48.456;-4.456;2023-08-06T03:33:26;16.40;78.84
74178;DHT22;62540;48.456;-4.456;2023-08-06T03:35:52;16.41;78.81
74178;DHT22;62540;48.456;-4.456;2023-08-06T03:38:17;16.51;78.63
74178;DHT22;62540;48.456;-4.456;2023-08-06T03:40:42;16.55;78.53
74178;DHT22;62540;48.456;-4.456;2023-08-06T03:43:08;16.59;78.45
74178;DHT22;62540;48.456;-4.456;2023-08-06T03:45:34;16.66;78.46
74178;DHT22;62540;48.456;-4.456;2023-08-06T03:47:59;16.66;78.38
74178;DHT22;62540;48.456;-4.456;2023-08-06T03:50:24;16.70;78.31
74178;DHT22;62540;48.456;-4.456;2023-08-06T03:52:50;16.70;78.38
74178;DHT22;62540;48.456;-4.456;2023-08-06T03:55:15;16.73;78.45
74178;DHT22;62540;48.456;-4.456;2023-08-06T03:57:40;16.70;78.52
74178;DHT22;62540;48.456;-4.456;2023-08-06T04:00:06;16.72;78.49
74178;DHT22;62540;48.456;-4.456;2023-08-06T04:02:32;16.70;78.52
74178;DHT22;62540;48.456;-4.456;2023-08-06T04:04:57;16.73;78.51
74178;DHT22;62540;48.456;-4.456;2023-08-06T04:07:24;16.73;78.52
74178;DHT22;62540;48.456;-4.456;2023-08-06T04:10:08;16.76;78.68
74178;DHT22;62540;48.456;-4.456;2023-08-06T04:12:34;16.79;78.52
74178;DHT22;62540;48.456;-4.456;2023-08-06T04:15:03;16.80;78.49
74178;DHT22;62540;48.456;-4.456;2023-08-06T04:17:29;16.83;78.49
74178;DHT22;62540;48.456;-4.456;2023-08-06T04:19:54;16.79;78.56
74178;DHT22;62540;48.456;-4.456;2023-08-06T04:22:21;16.83;78.62
74178;DHT22;62540;48.456;-4.456;2023-08-06T04:24:47;16.83;78.58
74178;DHT22;62540;48.456;-4.456;2023-08-06T04:27:14;16.82;78.63
74178;DHT22;62540;48.456;-4.456;2023-08-06T04:29:40;16.79;78.81
74178;DHT22;62540;48.456;-4.456;2023-08-06T04:32:07;16.77;78.78
74178;DHT22;62540;48.456;-4.456;2023-08-06T04:34:33;16.70;79.34
74178;DHT22;62540;48.456;-4.456;2023-08-06T04:36:59;16.69;79.27
74178;DHT22;62540;48.456;-4.456;2023-08-06T04:39:25;16.69;79.20
74178;DHT22;62540;48.456;-4.456;2023-08-06T04:41:50;16.69;79.35
74178;DHT22;62540;48.456;-4.456;2023-08-06T04:44:15;16.62;79.44
74178;DHT22;62540;48.456;-4.456;2023-08-06T04:46:41;16.65;79.49
74178;DHT22;62540;48.456;-4.456;2023-08-06T04:49:06;16.63;79.48
74178;DHT22;62540;48.456;-4.456;2023-08-06T04:51:32;16.68;79.35
74178;DHT22;62540;48.456;-4.456;2023-08-06T04:53:57;16.68;79.27
74178;DHT22;62540;48.456;-4.456;2023-08-06T04:56:23;16.68;79.26
74178;DHT22;62540;48.456;-4.456;2023-08-06T04:58:48;16.73;79.21
74178;DHT22;62540;48.456;-4.456;2023-08-06T05:01:14;16.73;79.08
74178;DHT22;62540;48.456;-4.456;2023-08-06T05:03:39;16.77;78.88
74178;DHT22;62540;48.456;-4.456;2023-08-06T05:06:04;16.76;78.70
74178;DHT22;62540;48.456;-4.456;2023-08-06T05:08:30;16.76;78.67
74178;DHT22;62540;48.456;-4.456;2023-08-06T05:10:55;16.75;78.63
74178;DHT22;62540;48.456;-4.456;2023-08-06T05:13:21;16.76;78.52
74178;DHT22;62540;48.456;-4.456;2023-08-06T05:15:46;16.76;78.45
74178;DHT22;62540;48.456;-4.456;2023-08-06T05:18:12;16.76;78.34
74178;DHT22;62540;48.456;-4.456;2023-08-06T05:20:39;16.77;78.23
74178;DHT22;62540;48.456;-4.456;2023-08-06T05:23:04;16.79;78.19
74178;DHT22;62540;48.456;-4.456;2023-08-06T05:25:30;16.77;78.12
74178;DHT22;62540;48.456;-4.456;2023-08-06T05:27:55;16.72;78.20
74178;DHT22;62540;48.456;-4.456;2023-08-06T05:30:21;16.73;78.31
74178;DHT22;62540;48.456;-4.456;2023-08-06T05:32:46;16.76;78.27
74178;DHT22;62540;48.456;-4.456;2023-08-06T05:35:11;16.79;78.19
74178;DHT22;62540;48.456;-4.456;2023-08-06T05:37:37;16.77;78.21
74178;DHT22;62540;48.456;-4.456;2023-08-06T05:40:02;16.76;78.39
74178;DHT22;62540;48.456;-4.456;2023-08-06T05:42:29;16.77;78.40
74178;DHT22;62540;48.456;-4.456;2023-08-06T05:44:54;16.82;78.34
74178;DHT22;62540;48.456;-4.456;2023-08-06T05:47:20;16.82;78.42
74178;DHT22;62540;48.456;-4.456;2023-08-06T05:49:45;16.82;78.59
74178;DHT22;62540;48.456;-4.456;2023-08-06T05:52:11;16.86;78.56
74178;DHT22;62540;48.456;-4.456;2023-08-06T05:54:36;16.83;78.73
74178;DHT22;62540;48.456;-4.456;2023-08-06T05:57:02;16.86;78.74
74178;DHT22;62540;48.456;-4.456;2023-08-06T05:59:27;16.89;78.93
74178;DHT22;62540;48.456;-4.456;2023-08-06T06:01:53;16.96;78.84
74178;DHT22;62540;48.456;-4.456;2023-08-06T06:04:18;17.00;78.84
74178;DHT22;62540;48.456;-4.456;2023-08-06T06:06:43;17.04;78.75
74178;DHT22;62540;48.456;-4.456;2023-08-06T06:09:10;17.03;78.91
74178;DHT22;62540;48.456;-4.456;2023-08-06T06:11:35;17.03;79.19
74178;DHT22;62540;48.456;-4.456;2023-08-06T06:14:00;17.07;79.08
74178;DHT22;62540;48.456;-4.456;2023-08-06T06:16:26;17.13;79.18
74178;DHT22;62540;48.456;-4.456;2023-08-06T06:18:51;17.14;79.27
74178;DHT22;62540;48.456;-4.456;2023-08-06T06:21:17;17.19;79.15
74178;DHT22;62540;48.456;-4.456;2023-08-06T06:23:42;17.23;79.04
74178;DHT22;62540;48.456;-4.456;2023-08-06T06:26:07;17.34;79.03
74178;DHT22;62540;48.456;-4.456;2023-08-06T06:28:33;17.38;78.84
74178;DHT22;62540;48.456;-4.456;2023-08-06T06:31:01;17.40;78.84
74178;DHT22;62540;48.456;-4.456;2023-08-06T06:33:27;17.41;78.94
74178;DHT22;62540;48.456;-4.456;2023-08-06T06:35:53;17.45;78.98
74178;DHT22;62540;48.456;-4.456;2023-08-06T06:38:18;17.59;79.00
74178;DHT22;62540;48.456;-4.456;2023-08-06T06:40:43;17.77;78.89
74178;DHT22;62540;48.456;-4.456;2023-08-06T06:43:09;17.89;78.76
74178;DHT22;62540;48.456;-4.456;2023-08-06T06:45:34;18.14;78.77
74178;DHT22;62540;48.456;-4.456;2023-08-06T06:47:59;18.33;78.30
74178;DHT22;62540;48.456;-4.456;2023-08-06T06:50:25;18.40;78.00
74178;DHT22;62540;48.456;-4.456;2023-08-06T06:52:51;18.38;77.65
74178;DHT22;62540;48.456;-4.456;2023-08-06T06:55:16;18.43;77.33
74178;DHT22;62540;48.456;-4.456;2023-08-06T06:57:42;18.25;76.90
74178;DHT22;62540;48.456;-4.456;2023-08-06T07:00:07;18.27;77.57
74178;DHT22;62540;48.456;-4.456;2023-08-06T07:02:33;18.33;77.45
74178;DHT22;62540;48.456;-4.456;2023-08-06T07:04:58;18.36;77.49
74178;DHT22;62540;48.456;-4.456;2023-08-06T07:07:24;18.43;77.50
74178;DHT22;62540;48.456;-4.456;2023-08-06T07:09:50;18.48;77.53
74178;DHT22;62540;48.456;-4.456;2023-08-06T07:12:15;18.54;77.58
74178;DHT22;62540;48.456;-4.456;2023-08-06T07:14:40;18.85;77.55
74178;DHT22;62540;48.456;-4.456;2023-08-06T07:17:06;19.39;77.28
74178;DHT22;62540;48.456;-4.456;2023-08-06T07:19:31;19.64;75.95
74178;DHT22;62540;48.456;-4.456;2023-08-06T07:21:56;19.77;75.42
74178;DHT22;62540;48.456;-4.456;2023-08-06T07:24:22;19.93;75.19
74178;DHT22;62540;48.456;-4.456;2023-08-06T07:26:47;20.26;74.79
74178;DHT22;62540;48.456;-4.456;2023-08-06T07:29:13;20.51;73.59
74178;DHT22;62540;48.456;-4.456;2023-08-06T07:31:39;20.42;72.75
74178;DHT22;62540;48.456;-4.456;2023-08-06T07:34:05;20.48;72.44
74178;DHT22;62540;48.456;-4.456;2023-08-06T07:36:30;20.56;72.73
74178;DHT22;62540;48.456;-4.456;2023-08-06T07:38:57;20.45;72.30
74178;DHT22;62540;48.456;-4.456;2023-08-06T07:41:23;20.35;72.32
74178;DHT22;62540;48.456;-4.456;2023-08-06T07:43:48;20.55;71.43
74178;DHT22;62540;48.456;-4.456;2023-08-06T07:46:14;20.72;72.32
74178;DHT22;62540;48.456;-4.456;2023-08-06T07:48:40;21.11;71.54
74178;DHT22;62540;48.456;-4.456;2023-08-06T07:51:05;21.20;70.60
74178;DHT22;62540;48.456;-4.456;2023-08-06T07:53:31;21.39;70.48
74178;DHT22;62540;48.456;-4.456;2023-08-06T07:55:56;21.59;68.89
74178;DHT22;62540;48.456;-4.456;2023-08-06T07:58:23;21.88;67.67
74178;DHT22;62540;48.456;-4.456;2023-08-06T08:00:49;22.34;66.46
74178;DHT22;62540;48.456;-4.456;2023-08-06T08:03:15;22.67;65.53
74178;DHT22;62540;48.456;-4.456;2023-08-06T08:05:44;22.64;63.78
74178;DHT22;62540;48.456;-4.456;2023-08-06T08:08:09;22.91;65.04
74178;DHT22;62540;48.456;-4.456;2023-08-06T08:10:35;22.81;65.44
74178;DHT22;62540;48.456;-4.456;2023-08-06T08:13:04;22.64;64.61
74178;DHT22;62540;48.456;-4.456;2023-08-06T08:15:30;22.53;64.57
74178;DHT22;62540;48.456;-4.456;2023-08-06T08:17:57;22.75;61.68
74178;DHT22;62540;48.456;-4.456;2023-08-06T08:20:22;23.22;62.62
74178;DHT22;62540;48.456;-4.456;2023-08-06T08:22:48;23.23;61.63
74178;DHT22;62540;48.456;-4.456;2023-08-06T08:25:14;23.03;62.40
74178;DHT22;62540;48.456;-4.456;2023-08-06T08:27:39;22.85;61.55
74178;DHT22;62540;48.456;-4.456;2023-08-06T08:30:05;22.74;62.20
74178;DHT22;62540;48.456;-4.456;2023-08-06T08:32:31;22.92;62.13
74178;DHT22;62540;48.456;-4.456;2023-08-06T08:34:56;22.92;62.24
74178;DHT22;62540;48.456;-4.456;2023-08-06T08:37:23;22.88;61.64
74178;DHT22;62540;48.456;-4.456;2023-08-06T08:39:48;22.71;60.39
74178;DHT22;62540;48.456;-4.456;2023-08-06T08:42:15;22.55;62.57
74178;DHT22;62540;48.456;-4.456;2023-08-06T08:44:42;22.43;61.46
74178;DHT22;62540;48.456;-4.456;2023-08-06T08:47:08;22.47;62.18
74178;DHT22;62540;48.456;-4.456;2023-08-06T08:49:36;22.37;61.90
74178;DHT22;62540;48.456;-4.456;2023-08-06T08:52:03;22.29;61.62
74178;DHT22;62540;48.456;-4.456;2023-08-06T08:54:33;22.27;62.54
74178;DHT22;62540;48.456;-4.456;2023-08-06T08:56:59;22.27;62.26
74178;DHT22;62540;48.456;-4.456;2023-08-06T08:59:24;22.17;62.35
74178;DHT22;62540;48.456;-4.456;2023-08-06T09:01:51;22.29;62.46
74178;DHT22;62540;48.456;-4.456;2023-08-06T09:04:17;22.24;61.65
74178;DHT22;62540;48.456;-4.456;2023-08-06T09:06:46;22.60;62.60
74178;DHT22;62540;48.456;-4.456;2023-08-06T09:09:16;22.88;62.37
74178;DHT22;62540;48.456;-4.456;2023-08-06T09:11:47;22.90;61.47
74178;DHT22;62540;48.456;-4.456;2023-08-06T09:14:14;22.76;60.54
74178;DHT22;62540;48.456;-4.456;2023-08-06T09:16:40;22.57;61.55
74178;DHT22;62540;48.456;-4.456;2023-08-06T09:19:12;22.84;60.60
74178;DHT22;62540;48.456;-4.456;2023-08-06T09:21:39;23.46;60.48
74178;DHT22;62540;48.456;-4.456;2023-08-06T09:24:14;23.80;58.82
74178;DHT22;62540;48.456;-4.456;2023-08-06T09:26:40;23.77;60.33
74178;DHT22;62540;48.456;-4.456;2023-08-06T09:29:07;24.08;58.33
74178;DHT22;62540;48.456;-4.456;2023-08-06T09:31:43;24.58;57.82
74178;DHT22;62540;48.456;-4.456;2023-08-06T09:36:42;24.36;55.81
74178;DHT22;62540;48.456;-4.456;2023-08-06T09:39:15;24.10;57.65
74178;DHT22;62540;48.456;-4.456;2023-08-06T09:41:41;24.17;56.29
74178;DHT22;62540;48.456;-4.456;2023-08-06T09:44:17;24.72;57.64
74178;DHT22;62540;48.456;-4.456;2023-08-06T09:46:50;25.35;57.17
74178;DHT22;62540;48.456;-4.456;2023-08-06T09:49:18;25.79;55.89
74178;DHT22;62540;48.456;-4.456;2023-08-06T09:51:44;26.37;54.69
74178;DHT22;62540;48.456;-4.456;2023-08-06T09:54:12;26.72;54.45
74178;DHT22;62540;48.456;-4.456;2023-08-06T09:56:38;27.11;52.73
74178;DHT22;62540;48.456;-4.456;2023-08-06T09:59:07;27.19;52.09
74178;DHT22;62540;48.456;-4.456;2023-08-06T10:01:34;26.53;50.69
74178;DHT22;62540;48.456;-4.456;2023-08-06T10:04:00;26.17;51.16
74178;DHT22;62540;48.456;-4.456;2023-08-06T10:06:28;26.29;49.92
74178;DHT22;62540;48.456;-4.456;2023-08-06T10:08:54;26.22;52.15
74178;DHT22;62540;48.456;-4.456;2023-08-06T10:11:21;26.13;52.51
74178;DHT22;62540;48.456;-4.456;2023-08-06T10:13:50;26.39;51.94
74178;DHT22;62540;48.456;-4.456;2023-08-06T10:16:17;26.61;51.27
74178;DHT22;62540;48.456;-4.456;2023-08-06T10:18:43;26.64;49.33
74178;DHT22;62540;48.456;-4.456;2023-08-06T10:21:09;27.01;51.27
74178;DHT22;62540;48.456;-4.456;2023-08-06T10:23:36;27.36;49.63
74178;DHT22;62540;48.456;-4.456;2023-08-06T10:26:03;27.40;48.84
74178;DHT22;62540;48.456;-4.456;2023-08-06T10:28:39;27.42;46.35
74178;DHT22;62540;48.456;-4.456;2023-08-06T10:31:05;27.63;49.41
74178;DHT22;62540;48.456;-4.456;2023-08-06T10:33:41;27.81;47.09
74178;DHT22;62540;48.456;-4.456;2023-08-06T10:36:08;27.76;46.45
74178;DHT22;62540;48.456;-4.456;2023-08-06T10:38:35;27.87;46.10
74178;DHT22;62540;48.456;-4.456;2023-08-06T10:41:03;28.00;47.59
74178;DHT22;62540;48.456;-4.456;2023-08-06T10:43:33;28.18;43.68
74178;DHT22;62540;48.456;-4.456;2023-08-06T10:46:01;28.25;46.38
74178;DHT22;62540;48.456;-4.456;2023-08-06T10:48:38;28.38;46.48
74178;DHT22;62540;48.456;-4.456;2023-08-06T10:51:09;28.42;43.75
74178;DHT22;62540;48.456;-4.456;2023-08-06T10:53:35;27.96;45.94
74178;DHT22;62540;48.456;-4.456;2023-08-06T10:56:02;27.81;46.70
74178;DHT22;62540;48.456;-4.456;2023-08-06T10:58:36;28.15;47.31
74178;DHT22;62540;48.456;-4.456;2023-08-06T11:01:02;28.45;45.78
74178;DHT22;62540;48.456;-4.456;2023-08-06T11:03:28;28.84;46.82
74178;DHT22;62540;48.456;-4.456;2023-08-06T11:05:53;28.69;44.74
74178;DHT22;62540;48.456;-4.456;2023-08-06T11:08:32;28.35;45.48
74178;DHT22;62540;48.456;-4.456;2023-08-06T11:11:11;28.09;44.29
74178;DHT22;62540;48.456;-4.456;2023-08-06T11:13:45;28.12;44.93
74178;DHT22;62540;48.456;-4.456;2023-08-06T11:16:15;27.91;45.51
74178;DHT22;62540;48.456;-4.456;2023-08-06T11:18:42;27.80;46.03
74178;DHT22;62540;48.456;-4.456;2023-08-06T11:21:07;27.84;46.55
74178;DHT22;62540;48.456;-4.456;2023-08-06T11:23:34;27.74;45.98
74178;DHT22;62540;48.456;-4.456;2023-08-06T11:25:59;27.80;46.52
74178;DHT22;62540;48.456;-4.456;2023-08-06T11:28:25;27.59;45.98
74178;DHT22;62540;48.456;-4.456;2023-08-06T11:30:51;27.23;46.73
74178;DHT22;62540;48.456;-4.456;2023-08-06T11:33:21;27.05;47.55
74178;DHT22;62540;48.456;-4.456;2023-08-06T11:35:48;27.39;48.31
74178;DHT22;62540;48.456;-4.456;2023-08-06T11:38:13;27.50;46.64
74178;DHT22;62540;48.456;-4.456;2023-08-06T11:40:39;27.30;47.37
74178;DHT22;62540;48.456;-4.456;2023-08-06T11:43:06;26.95;47.00
74178;DHT22;62540;48.456;-4.456;2023-08-06T11:45:35;26.68;47.53
74178;DHT22;62540;48.456;-4.456;2023-08-06T11:48:00;26.36;47.34
74178;DHT22;62540;48.456;-4.456;2023-08-06T11:50:27;26.19;48.68
74178;DHT22;62540;48.456;-4.456;2023-08-06T11:53:01;26.09;49.56
74178;DHT22;62540;48.456;-4.456;2023-08-06T11:55:28;26.44;49.89
74178;DHT22;62540;48.456;-4.456;2023-08-06T11:57:54;26.80;48.72
74178;DHT22;62540;48.456;-4.456;2023-08-06T12:00:22;27.01;48.34
74178;DHT22;62540;48.456;-4.456;2023-08-06T12:02:48;26.72;47.30
74178;DHT22;62540;48.456;-4.456;2023-08-06T12:05:17;26.19;48.12
74178;DHT22;62540;48.456;-4.456;2023-08-06T12:10:12;25.86;49.88
74178;DHT22;62540;48.456;-4.456;2023-08-06T12:12:38;26.14;49.96
74178;DHT22;62540;48.456;-4.456;2023-08-06T12:15:05;26.34;49.05
74178;DHT22;62540;48.456;-4.456;2023-08-06T12:17:31;26.68;49.79
74178;DHT22;62540;48.456;-4.456;2023-08-06T12:19:57;26.80;49.13
74178;DHT22;62540;48.456;-4.456;2023-08-06T12:22:22;26.70;48.85
74178;DHT22;62540;48.456;-4.456;2023-08-06T12:24:48;26.41;47.08
74178;DHT22;62540;48.456;-4.456;2023-08-06T12:27:14;26.12;48.23
74178;DHT22;62540;48.456;-4.456;2023-08-06T12:29:43;26.17;49.06
74178;DHT22;62540;48.456;-4.456;2023-08-06T12:32:09;26.10;49.32
74178;DHT22;62540;48.456;-4.456;2023-08-06T12:34:35;25.93;49.40
74178;DHT22;62540;48.456;-4.456;2023-08-06T12:37:01;25.65;50.14
74178;DHT22;62540;48.456;-4.456;2023-08-06T12:39:27;25.61;50.92
74178;DHT22;62540;48.456;-4.456;2023-08-06T12:41:56;25.76;51.15
74178;DHT22;62540;48.456;-4.456;2023-08-06T12:44:23;26.10;51.19
74178;DHT22;62540;48.456;-4.456;2023-08-06T12:46:49;26.45;50.30
74178;DHT22;62540;48.456;-4.456;2023-08-06T12:49:15;26.61;50.06
74178;DHT22;62540;48.456;-4.456;2023-08-06T12:51:40;26.74;49.50
74178;DHT22;62540;48.456;-4.456;2023-08-06T12:54:06;26.77;49.48
74178;DHT22;62540;48.456;-4.456;2023-08-06T12:56:31;26.78;49.10
74178;DHT22;62540;48.456;-4.456;2023-08-06T12:58:56;26.78;48.76
74178;DHT22;62540;48.456;-4.456;2023-08-06T13:01:22;27.12;48.68
74178;DHT22;62540;48.456;-4.456;2023-08-06T13:03:47;27.33;48.42
74178;DHT22;62540;48.456;-4.456;2023-08-06T13:06:12;27.20;47.28
74178;DHT22;62540;48.456;-4.456;2023-08-06T13:08:38;27.06;47.50
74178;DHT22;62540;48.456;-4.456;2023-08-06T13:11:04;27.11;47.63
74178;DHT22;62540;48.456;-4.456;2023-08-06T13:13:30;27.03;48.23
74178;DHT22;62540;48.456;-4.456;2023-08-06T13:15:55;26.85;48.39
74178;DHT22;62540;48.456;-4.456;2023-08-06T13:18:20;26.68;48.61
74178;DHT22;62540;48.456;-4.456;2023-08-06T13:20:46;26.41;48.55
74178;DHT22;62540;48.456;-4.456;2023-08-06T13:23:13;26.20;48.95
74178;DHT22;62540;48.456;-4.456;2023-08-06T13:25:41;25.96;49.76
74178;DHT22;62540;48.456;-4.456;2023-08-06T13:28:07;25.82;50.51
74178;DHT22;62540;48.456;-4.456;2023-08-06T13:30:32;25.79;51.28
74178;DHT22;62540;48.456;-4.456;2023-08-06T13:33:00;25.89;50.90
74178;DHT22;62540;48.456;-4.456;2023-08-06T13:35:26;26.14;50.86
74178;DHT22;62540;48.456;-4.456;2023-08-06T13:37:51;26.17;50.17
74178;DHT22;62540;48.456;-4.456;2023-08-06T13:40:17;26.23;50.48
74178;DHT22;62540;48.456;-4.456;2023-08-06T13:42:42;26.36;50.70
74178;DHT22;62540;48.456;-4.456;2023-08-06T13:45:09;26.57;49.52
74178;DHT22;62540;48.456;-4.456;2023-08-06T13:47:34;26.75;48.40
74178;DHT22;62540;48.456;-4.456;2023-08-06T13:50:00;26.90;48.89
74178;DHT22;62540;48.456;-4.456;2023-08-06T13:52:26;27.12;48.81
74178;DHT22;62540;48.456;-4.456;2023-08-06T13:54:52;27.22;48.00
74178;DHT22;62540;48.456;-4.456;2023-08-06T13:57:18;27.23;47.91
74178;DHT22;62540;48.456;-4.456;2023-08-06T13:59:43;27.18;46.53
74178;DHT22;62540;48.456;-4.456;2023-08-06T14:02:09;27.15;47.48
74178;DHT22;62540;48.456;-4.456;2023-08-06T14:04:35;27.06;48.20
74178;DHT22;62540;48.456;-4.456;2023-08-06T14:07:02;27.09;47.51
74178;DHT22;62540;48.456;-4.456;2023-08-06T14:09:28;26.91;47.20
74178;DHT22;62540;48.456;-4.456;2023-08-06T14:11:53;26.80;47.41
74178;DHT22;62540;48.456;-4.456;2023-08-06T14:14:19;26.57;47.53
74178;DHT22;62540;48.456;-4.456;2023-08-06T14:16:45;26.47;48.15
74178;DHT22;62540;48.456;-4.456;2023-08-06T14:19:10;26.40;48.36
74178;DHT22;62540;48.456;-4.456;2023-08-06T14:21:36;26.17;48.22
74178;DHT22;62540;48.456;-4.456;2023-08-06T14:24:01;25.93;47.65
74178;DHT22;62540;48.456;-4.456;2023-08-06T14:26:27;25.83;49.22
74178;DHT22;62540;48.456;-4.456;2023-08-06T14:28:52;25.92;49.12
74178;DHT22;62540;48.456;-4.456;2023-08-06T14:31:20;25.97;49.13
74178;DHT22;62540;48.456;-4.456;2023-08-06T14:33:45;25.93;49.02
74178;DHT22;62540;48.456;-4.456;2023-08-06T14:36:11;25.76;48.79
74178;DHT22;62540;48.456;-4.456;2023-08-06T14:38:36;25.72;48.99
74178;DHT22;62540;48.456;-4.456;2023-08-06T14:41:01;25.44;48.43
74178;DHT22;62540;48.456;-4.456;2023-08-06T14:43:27;25.26;48.69
74178;DHT22;62540;48.456;-4.456;2023-08-06T14:45:52;25.07;48.30
74178;DHT22;62540;48.456;-4.456;2023-08-06T14:48:18;24.87;49.29
74178;DHT22;62540;48.456;-4.456;2023-08-06T14:50:43;24.75;50.14
74178;DHT22;62540;48.456;-4.456;2023-08-06T14:53:09;24.62;50.00
74178;DHT22;62540;48.456;-4.456;2023-08-06T14:55:37;24.53;50.42
74178;DHT22;62540;48.456;-4.456;2023-08-06T14:58:02;24.49;50.92
74178;DHT22;62540;48.456;-4.456;2023-08-06T15:00:28;24.58;50.95
74178;DHT22;62540;48.456;-4.456;2023-08-06T15:02:53;24.63;51.65
74178;DHT22;62540;48.456;-4.456;2023-08-06T15:05:18;24.76;51.71
74178;DHT22;62540;48.456;-4.456;2023-08-06T15:07:44;24.77;51.15
74178;DHT22;62540;48.456;-4.456;2023-08-06T15:10:09;24.75;50.33
74178;DHT22;62540;48.456;-4.456;2023-08-06T15:12:35;24.63;50.34
74178;DHT22;62540;48.456;-4.456;2023-08-06T15:15:00;24.62;51.05
74178;DHT22;62540;48.456;-4.456;2023-08-06T15:17:26;24.62;51.04